ADDS METAR Data INFO
IDs: Format: Raw Decoded Include TAF

Data at: 2049 UTC 19 Jul 2018

METAR for:KFMY (Fort Myers/Page Fld, FL, US)
Text:KFMY 191953Z AUTO 24012KT 10SM FEW039 32/23 A2997 RMK AO2 SLP150 T03220228 $
Temperature: 32.2°C ( 90°F)
Dewpoint: 22.8°C ( 73°F) [RH = 58%]
Pressure (altimeter):29.97 inches Hg (1015.0 mb) [Sea level pressure: 1015.0 mb]
Winds:from the WSW (240 degrees) at 14 MPH (12 knots; 6.2 m/s)
Visibility:10 or more sm (16+ km)
Ceiling:at least 12,000 feet AGL
Clouds: few clouds at 3900 feet AGL
QC Flag:automated observation with no human augmentation; SOME DATA ABOVE MAY BE INACCURATE!!!"$" is an indication the sensor requires maintenance.